Time;durP1;ratioP1;P1;durP2;ratioP2;P2;SDS_P1;SDS_P2;PMS_P1;PMS_P2;Temp;Humidity;BMP_temperature;BMP_pressure;BME280_temperature;BME280_humidity;BME280_pressure;Samples;Min_cycle;Max_cycle;Signal;HPM_P1;HPM_P2
2022/04/28 00:02:16;;;;;;;;;;;;;;;5.84;100.00;99989.33;1687863;84;20156;-73
2022/04/28 00:04:50;;;;;;;;;;;;;;;5.81;100.00;100006.22;1630154;86;20102;-72
2022/04/28 00:07:23;;;;;;;;;;;;;;;5.78;100.00;100001.32;1660710;84;21411;-72
2022/04/28 00:09:49;;;;;;;;;;;;;;;5.75;100.00;100001.89;1662731;85;20093;-72
2022/04/28 00:12:17;;;;;;;;;;;;;;;5.76;100.00;100006.80;1663256;86;20158;-71
2022/04/28 00:14:47;;;;;;;;;;;;;;;5.76;100.00;100006.26;1660637;84;20437;-71
2022/04/28 00:17:20;;;;;;;;;;;;;;;5.80;100.00;100003.77;1662702;86;20154;-71
2022/04/28 00:20:04;;;;;;;;;;;;;;;5.85;100.00;100005.13;1640552;85;20098;-71
2022/04/28 00:22:21;;;;;;;;;;;;;;;5.88;100.00;100008.12;1658091;85;20113;-71
2022/04/28 00:24:55;;;;;;;;;;;;;;;5.95;100.00;100005.98;1664399;85;20165;-71
2022/04/28 00:27:25;;;;;;;;;;;;;;;6.00;100.00;100008.42;1634736;85;20134;-71
2022/04/28 00:29:51;;;;;;;;;;;;;;;6.02;100.00;100010.33;1661976;85;21399;-71
2022/04/28 00:32:18;;;;;;;;;;;;;;;6.00;100.00;100008.42;1662110;85;20862;-71
2022/04/28 00:34:47;;;;;;;;;;;;;;;5.99;100.00;100006.80;1646755;86;20135;-71
2022/04/28 00:37:18;;;;;;;;;;;;;;;5.93;100.00;100004.07;1665177;85;20106;-71
2022/04/28 00:39:46;;;;;;;;;;;;;;;5.89;100.00;100008.44;1665060;85;20144;-71
2022/04/28 00:42:15;;;;;;;;;;;;;;;5.84;100.00;100004.31;1633107;86;20102;-71
2022/04/28 00:44:50;;;;;;;;;;;;;;;5.79;100.00;100004.31;1658713;86;20111;-71
2022/04/28 00:47:22;;;;;;;;;;;;;;;5.77;100.00;100002.98;1638006;84;20421;-70
2022/04/28 00:52:38;;;;;;;;;;;;;;;5.68;100.00;100005.98;1611909;88;20098;-71
2022/04/28 00:55:29;;;;;;;;;;;;;;;5.61;100.00;100000.26;1613795;88;21212;-71
2022/04/28 00:57:45;;;;;;;;;;;;;;;5.61;100.00;100000.80;1615904;87;20455;-71
2022/04/28 01:00:15;;;;;;;;;;;;;;;5.60;100.00;99999.17;1604947;88;20156;-71
2022/04/28 01:02:45;;;;;;;;;;;;;;;5.59;100.00;99999.71;1647861;85;20153;-70
2022/04/28 01:05:19;;;;;;;;;;;;;;;5.60;100.00;99996.44;1637905;86;20114;-70
2022/04/28 01:07:48;;;;;;;;;;;;;;;5.58;100.00;100004.89;1652939;85;20128;-70
2022/04/28 01:10:15;;;;;;;;;;;;;;;5.56;100.00;100001.62;1659182;85;20154;-70
2022/04/28 01:12:43;;;;;;;;;;;;;;;5.58;100.00;99999.98;1647187;84;20130;-70
2022/04/28 01:15:16;;;;;;;;;;;;;;;5.59;100.00;100005.70;1652987;84;20126;-70
2022/04/28 01:17:50;;;;;;;;;;;;;;;5.61;100.00;99999.44;1652097;85;20127;-70
2022/04/28 01:20:21;;;;;;;;;;;;;;;5.61;100.00;100000.26;1652005;86;21122;-70
2022/04/28 01:22:47;;;;;;;;;;;;;;;5.61;100.00;99997.53;1651271;85;20432;-70
2022/04/28 01:25:17;;;;;;;;;;;;;;;5.62;100.00;99993.72;1650476;86;20089;-73
2022/04/28 01:27:49;;;;;;;;;;;;;;;5.62;100.00;99995.08;1630079;86;38824;-72
2022/04/28 01:30:16;;;;;;;;;;;;;;;5.64;100.00;99994.81;1652601;84;20216;-72
2022/04/28 01:32:46;;;;;;;;;;;;;;;5.69;100.00;99994.81;1645438;85;21155;-71
2022/04/28 01:35:14;;;;;;;;;;;;;;;5.78;100.00;99995.05;1647740;85;20178;-71
2022/04/28 01:37:52;;;;;;;;;;;;;;;5.85;100.00;99991.51;1653739;85;20110;-71
2022/04/28 01:40:24;;;;;;;;;;;;;;;5.93;100.00;99987.72;1649325;85;20130;-71
2022/04/28 01:42:54;;;;;;;;;;;;;;;6.02;100.00;99982.53;1651821;86;20241;-71
2022/04/28 01:45:21;;;;;;;;;;;;;;;6.11;100.00;99981.43;1652829;86;21195;-71
2022/04/28 01:48:05;;;;;;;;;;;;;;;6.18;100.00;99979.23;1642035;86;20154;-71
2022/04/28 01:56:32;;;;;;;;;;;;;;;6.45;98.70;99975.59;1631561;85;20149;-71
2022/04/28 01:59:10;;;;;;;;;;;;;;;6.52;97.84;99976.11;1650572;85;20131;-72
2022/04/28 02:01:40;;;;;;;;;;;;;;;6.60;97.15;99975.53;1636305;85;20462;-72
2022/04/28 02:04:08;;;;;;;;;;;;;;;6.67;96.33;99975.23;1652422;85;20477;-72
2022/04/28 02:06:37;;;;;;;;;;;;;;;6.72;95.62;99981.22;1643247;85;20177;-72
2022/04/28 02:09:04;;;;;;;;;;;;;;;6.78;94.61;99974.64;1634943;85;20201;-72
2022/04/28 02:11:32;;;;;;;;;;;;;;;6.81;93.68;99966.71;1650558;85;20089;-72
2022/04/28 02:14:02;;;;;;;;;;;;;;;6.85;93.02;99975.97;1640115;85;20447;-72
2022/04/28 02:16:48;;;;;;;;;;;;;;;6.89;92.39;99972.13;1654448;85;20118;-72
2022/04/28 02:19:19;;;;;;;;;;;;;;;6.92;91.94;99971.58;1651066;85;20130;-72
2022/04/28 02:21:47;;;;;;;;;;;;;;;6.94;91.36;99970.71;1648835;85;20276;-73
2022/04/28 02:24:14;;;;;;;;;;;;;;;6.98;90.78;99977.24;1659434;85;21171;-73
2022/04/28 02:26:42;;;;;;;;;;;;;;;7.00;90.47;99976.41;1653829;86;20180;-73
2022/04/28 02:29:08;;;;;;;;;;;;;;;7.02;90.19;99982.95;1649732;85;20118;-73
2022/04/28 02:31:36;;;;;;;;;;;;;;;7.04;89.84;99984.85;1651318;85;20125;-73
2022/04/28 02:34:04;;;;;;;;;;;;;;;7.05;89.36;99977.75;1646779;85;20098;-73
2022/04/28 02:36:32;;;;;;;;;;;;;;;7.07;89.42;99973.38;1645971;85;21234;-73
2022/04/28 02:38:59;;;;;;;;;;;;;;;7.07;88.92;99974.73;1648190;85;20472;-72
2022/04/28 02:41:26;;;;;;;;;;;;;;;7.06;89.03;99975.28;1651875;85;20101;-73
2022/04/28 02:43:52;;;;;;;;;;;;;;;7.06;88.59;99977.20;1651014;85;20135;-73
2022/04/28 02:46:19;;;;;;;;;;;;;;;7.06;88.24;99982.11;1648215;85;20425;-73
2022/04/28 02:48:50;;;;;;;;;;;;;;;7.04;87.85;99982.94;1649465;85;21312;-72
2022/04/28 02:51:17;;;;;;;;;;;;;;;7.04;87.94;99993.05;1654206;85;20090;-73
2022/04/28 02:53:44;;;;;;;;;;;;;;;7.03;87.67;99993.59;1649851;85;20113;-73
2022/04/28 02:56:10;;;;;;;;;;;;;;;7.03;88.14;99986.77;1647041;86;20425;-72
2022/04/28 02:58:37;;;;;;;;;;;;;;;7.03;87.98;99989.50;1650841;85;20106;-72
2022/04/28 03:01:05;;;;;;;;;;;;;;;7.00;87.78;99987.33;1649146;85;21078;-72
2022/04/28 03:03:33;;;;;;;;;;;;;;;7.00;87.51;99995.52;1650777;85;20093;-75
2022/04/28 03:11:32;;;;;;;;;;;;;;;6.97;87.08;99996.08;1650929;85;20126;-73
2022/04/28 03:14:01;;;;;;;;;;;;;;;6.95;86.44;100003.73;1655581;85;20599;-72
2022/04/28 03:16:28;;;;;;;;;;;;;;;6.95;86.22;100009.19;1659008;85;20433;-72
2022/04/28 03:18:57;;;;;;;;;;;;;;;6.96;86.21;100012.19;1656884;85;20082;-72
2022/04/28 03:21:24;;;;;;;;;;;;;;;6.98;85.87;100018.73;1652941;84;20122;-73
2022/04/28 03:23:51;;;;;;;;;;;;;;;6.99;86.10;100022.55;1643507;85;20117;-73
2022/04/28 03:26:17;;;;;;;;;;;;;;;7.01;86.26;100022.27;1640437;85;20607;-73
2022/04/28 03:28:44;;;;;;;;;;;;;;;7.03;86.84;100022.25;1653726;85;20089;-72
2022/04/28 03:31:11;;;;;;;;;;;;;;;7.05;87.26;100026.89;1654909;84;20101;-73
2022/04/28 03:33:40;;;;;;;;;;;;;;;7.07;87.92;100023.33;1655695;85;20089;-72
2022/04/28 03:36:50;;;;;;;;;;;;;;;7.10;88.92;100028.77;1654808;85;20077;-72
2022/04/28 03:38:36;;;;;;;;;;;;;;;7.11;89.42;100040.78;1645270;86;20478;-72
2022/04/28 03:41:03;;;;;;;;;;;;;;;7.15;88.79;100047.31;1653460;85;20102;-72
2022/04/28 03:43:31;;;;;;;;;;;;;;;7.22;88.01;100050.55;1655241;85;20105;-72
2022/04/28 03:45:58;;;;;;;;;;;;;;;7.35;88.06;100055.95;1652140;85;20458;-72
2022/04/28 03:48:24;;;;;;;;;;;;;;;7.44;87.52;100046.06;1652267;85;20134;-71
2022/04/28 03:50:51;;;;;;;;;;;;;;;7.52;87.60;100041.34;1660845;84;22201;-71
2022/04/28 03:53:17;;;;;;;;;;;;;;;7.61;87.96;100047.02;1647696;86;20102;-71
2022/04/28 03:55:44;;;;;;;;;;;;;;;7.66;88.05;100045.62;1656335;85;20428;-72
2022/04/28 03:58:10;;;;;;;;;;;;;;;7.70;87.93;100041.77;1651713;85;20125;-71
2022/04/28 04:00:37;;;;;;;;;;;;;;;7.73;87.64;100048.03;1652822;86;20149;-72
2022/04/28 04:03:06;;;;;;;;;;;;;;;7.76;87.41;100054.30;1650193;85;21200;-71
2022/04/28 04:05:32;;;;;;;;;;;;;;;7.80;87.09;100053.44;1648974;85;20465;-72
2022/04/28 04:07:59;;;;;;;;;;;;;;;7.87;87.06;100057.22;1645762;85;20102;-71
2022/04/28 04:10:36;;;;;;;;;;;;;;;7.94;87.41;100053.06;1649438;85;20125;-72
2022/04/28 04:13:05;;;;;;;;;;;;;;;8.03;87.63;100041.51;1651554;85;20476;-71
2022/04/28 04:15:33;;;;;;;;;;;;;;;8.10;87.64;100043.33;1651376;85;21188;-72
2022/04/28 04:18:09;;;;;;;;;;;;;;;8.17;86.43;100049.28;1643998;85;20105;-71
2022/04/28 04:20:38;;;;;;;;;;;;;;;8.22;84.79;100047.88;1653609;85;20121;-71
2022/04/28 04:23:06;;;;;;;;;;;;;;;8.27;83.78;100045.91;1652775;85;20090;-72
2022/04/28 04:25:34;;;;;;;;;;;;;;;8.35;82.60;100054.62;1651089;86;20121;-72
2022/04/28 04:28:00;;;;;;;;;;;;;;;8.40;81.74;100056.75;1621043;86;21165;-71
2022/04/28 04:33:31;;;;;;;;;;;;;;;8.46;80.43;100061.08;1644793;85;20146;-72
2022/04/28 04:35:58;;;;;;;;;;;;;;;8.50;80.09;100066.78;1652568;85;20103;-72
2022/04/28 04:38:24;;;;;;;;;;;;;;;8.54;79.36;100065.10;1650784;85;20440;-71
2022/04/28 04:40:51;;;;;;;;;;;;;;;8.58;78.57;100062.05;1655613;85;21126;-72
2022/04/28 04:43:18;;;;;;;;;;;;;;;8.66;78.37;100063.34;1654464;85;20169;-71
2022/04/28 04:45:45;;;;;;;;;;;;;;;8.73;77.93;100061.03;1653079;85;20106;-72
2022/04/28 04:48:14;;;;;;;;;;;;;;;8.82;77.32;100072.98;1649823;85;20166;-72
2022/04/28 04:50:42;;;;;;;;;;;;;;;8.93;76.70;100071.20;1652353;85;20462;-72
2022/04/28 04:53:11;;;;;;;;;;;;;;;9.08;76.00;100077.05;1649431;85;21284;-72
2022/04/28 04:55:38;;;;;;;;;;;;;;;9.20;75.44;100088.41;1648364;85;20441;-72
2022/04/28 04:58:07;;;;;;;;;;;;;;;9.34;74.98;100090.40;1653316;85;20129;-72
2022/04/28 05:00:37;;;;;;;;;;;;;;;9.45;73.70;100087.23;1649633;85;20078;-72
2022/04/28 05:03:22;;;;;;;;;;;;;;;9.55;73.63;100092.57;1647728;85;20460;-76
2022/04/28 05:06:06;;;;;;;;;;;;;;;9.66;72.84;100087.77;1658723;85;21226;-72
2022/04/28 05:08:36;;;;;;;;;;;;;;;9.77;72.77;100088.43;1647525;86;20417;-73
2022/04/28 05:11:09;;;;;;;;;;;;;;;9.86;73.02;100088.80;1656076;85;20117;-70
2022/04/28 05:13:37;;;;;;;;;;;;;;;9.99;72.50;100095.46;1651344;85;20101;-71
2022/04/28 05:16:06;;;;;;;;;;;;;;;10.10;71.99;100097.48;1652468;85;20101;-72
2022/04/28 05:18:42;;;;;;;;;;;;;;;10.20;70.94;100100.10;1649536;84;20570;-72
2022/04/28 05:21:11;;;;;;;;;;;;;;;10.32;71.01;100096.33;1609571;86;20139;-72
2022/04/28 05:23:54;;;;;;;;;;;;;;;10.47;70.50;100101.53;1647694;85;20105;-71
2022/04/28 05:26:24;;;;;;;;;;;;;;;10.65;70.24;100096.28;1622120;85;20137;-71
2022/04/28 05:29:08;;;;;;;;;;;;;;;10.81;68.99;100099.00;1666973;84;20174;-71
2022/04/28 05:31:49;;;;;;;;;;;;;;;10.98;68.20;100099.19;1633289;85;21324;-72
2022/04/28 05:34:21;;;;;;;;;;;;;;;11.17;68.61;100097.71;1634869;87;20144;-71
2022/04/28 05:36:56;;;;;;;;;;;;;;;11.36;67.48;100104.47;1654228;86;20417;-72
2022/04/28 05:39:27;;;;;;;;;;;;;;;11.49;65.68;100107.20;1660124;86;20138;-71
2022/04/28 05:41:53;;;;;;;;;;;;;;;11.59;65.32;100112.45;1635822;87;20128;-71
2022/04/28 05:47:07;;;;;;;;;;;;;;;11.77;65.14;100109.89;1660420;84;20255;-78
2022/04/28 05:49:33;;;;;;;;;;;;;;;11.85;63.72;100108.60;1643615;85;20427;-79
2022/04/28 05:52:03;;;;;;;;;;;;;;;11.93;63.50;100115.30;1637716;87;20433;-73
2022/04/28 05:54:31;;;;;;;;;;;;;;;12.06;62.78;100115.00;1634478;87;20196;-75
2022/04/28 05:56:58;;;;;;;;;;;;;;;12.13;62.12;100109.88;1633303;87;21104;-73
2022/04/28 05:59:26;;;;;;;;;;;;;;;12.22;61.40;100109.35;1635957;87;20091;-72
2022/04/28 06:01:54;;;;;;;;;;;;;;;12.28;60.99;100109.48;1623983;86;20193;-73
2022/04/28 06:04:22;;;;;;;;;;;;;;;12.36;59.54;100112.05;1634905;87;20452;-73
2022/04/28 06:06:50;;;;;;;;;;;;;;;12.39;59.64;100108.09;1635053;85;20173;-73
2022/04/28 06:09:18;;;;;;;;;;;;;;;12.44;60.56;100114.04;1628443;87;21180;-73
2022/04/28 06:11:47;;;;;;;;;;;;;;;12.54;59.45;100122.05;1609512;87;20144;-73
2022/04/28 06:14:13;;;;;;;;;;;;;;;12.63;58.20;100119.34;1635807;86;20104;-72
2022/04/28 06:16:49;;;;;;;;;;;;;;;12.71;58.66;100121.34;1634987;87;20124;-80
2022/04/28 06:19:21;;;;;;;;;;;;;;;12.75;58.73;100122.30;1639503;87;20442;-76
2022/04/28 06:21:52;;;;;;;;;;;;;;;12.79;58.45;100125.48;1626803;86;21177;-76
2022/04/28 06:24:21;;;;;;;;;;;;;;;12.81;59.25;100121.03;1634519;87;20116;-77
2022/04/28 06:26:49;;;;;;;;;;;;;;;12.88;58.11;100124.16;1634374;87;20108;-73
2022/04/28 06:29:16;;;;;;;;;;;;;;;13.00;58.83;100121.61;1640222;85;20531;-73
2022/04/28 06:31:43;;;;;;;;;;;;;;;13.19;58.79;100125.53;1676880;85;20180;-70
2022/04/28 06:34:28;;;;;;;;;;;;;;;13.38;58.71;100132.14;1659083;85;21834;-71
2022/04/28 06:36:56;;;;;;;;;;;;;;;13.57;57.85;100132.67;1664347;85;20420;-72
2022/04/28 06:39:24;;;;;;;;;;;;;;;13.67;56.49;100131.56;1637185;86;20863;-74
2022/04/28 06:41:51;;;;;;;;;;;;;;;13.70;55.12;100127.59;1637673;86;20218;-75
2022/04/28 06:44:21;;;;;;;;;;;;;;;13.75;55.39;100130.77;1612110;87;20330;-72
2022/04/28 06:46:55;;;;;;;;;;;;;;;13.83;55.63;100134.91;1612161;88;21185;-72
2022/04/28 06:49:28;;;;;;;;;;;;;;;13.96;54.50;100137.25;1613943;88;20102;-70
2022/04/28 06:51:58;;;;;;;;;;;;;;;14.05;55.21;100135.31;1667695;83;20093;-76
2022/04/28 06:54:29;;;;;;;;;;;;;;;14.14;54.99;100128.41;1644022;86;20473;-76
2022/04/28 06:56:58;;;;;;;;;;;;;;;14.27;53.24;100134.34;1640295;86;20639;-75
2022/04/28 06:59:27;;;;;;;;;;;;;;;14.31;51.44;100138.06;1649983;86;21153;-69
2022/04/28 07:01:55;;;;;;;;;;;;;;;14.36;51.38;100144.00;1635354;86;20127;-72
2022/04/28 07:04:24;;;;;;;;;;;;;;;14.41;50.27;100135.00;1636889;85;20082;-70
2022/04/28 07:06:50;;;;;;;;;;;;;;;14.48;46.95;100133.91;1625468;86;20186;-70
2022/04/28 07:09:17;;;;;;;;;;;;;;;14.60;47.38;100142.09;1647538;85;20233;-71
2022/04/28 07:11:44;;;;;;;;;;;;;;;14.74;47.42;100135.81;1636632;85;21120;-72
2022/04/28 07:14:15;;;;;;;;;;;;;;;14.82;44.90;100139.13;1651708;86;20735;-72
2022/04/28 07:16:53;;;;;;;;;;;;;;;14.84;44.09;100132.70;1587818;89;20174;-72
2022/04/28 07:19:24;;;;;;;;;;;;;;;14.96;45.32;100143.88;1643211;85;20151;-73
2022/04/28 07:21:54;;;;;;;;;;;;;;;15.16;44.65;100142.31;1634850;86;20146;-71
2022/04/28 07:24:22;;;;;;;;;;;;;;;15.32;41.85;100136.47;1636105;86;20962;-69
2022/04/28 07:26:49;;;;;;;;;;;;;;;15.41;44.10;100138.63;1625190;86;20588;-71
2022/04/28 07:29:16;;;;;;;;;;;;;;;15.51;43.43;100145.16;1633899;86;20094;-70
2022/04/28 07:31:53;;;;;;;;;;;;;;;15.61;42.37;100152.27;1639827;85;20120;-72
2022/04/28 07:34:40;;;;;;;;;;;;;;;15.63;41.68;100159.66;1621219;86;20484;-70
2022/04/28 07:37:25;;;;;;;;;;;;;;;15.67;43.01;100148.17;1625755;86;21268;-77
2022/04/28 07:39:59;;;;;;;;;;;;;;;15.80;39.93;100149.88;1618730;86;20433;-73
2022/04/28 07:42:30;;;;;;;;;;;;;;;15.82;40.16;100150.34;1640598;86;20421;-72
2022/04/28 07:44:57;;;;;;;;;;;;;;;15.81;40.83;100145.96;1644670;86;20119;-75
2022/04/28 07:47:26;;;;;;;;;;;;;;;15.98;42.99;100149.75;1627941;86;20446;-79
2022/04/28 07:50:10;;;;;;;;;;;;;;;16.19;42.26;100149.16;1619799;87;22006;-71
2022/04/28 07:52:38;;;;;;;;;;;;;;;16.45;42.61;100148.36;1615008;88;20160;-71
2022/04/28 07:55:08;;;;;;;;;;;;;;;16.53;42.28;100157.74;1618783;86;20157;-71
2022/04/28 07:57:35;;;;;;;;;;;;;;;16.49;40.00;100153.45;1636512;86;20423;-73
2022/04/28 08:00:05;;;;;;;;;;;;;;;16.45;40.46;100153.09;1651887;86;20168;-74
2022/04/28 08:02:36;;;;;;;;;;;;;;;16.44;40.37;100152.28;1648184;86;21134;-75
2022/04/28 08:05:04;;;;;;;;;;;;;;;16.60;41.46;100146.10;1650360;86;20106;-74
2022/04/28 08:07:33;;;;;;;;;;;;;;;16.77;40.89;100137.61;1650640;86;20150;-75
2022/04/28 08:10:04;;;;;;;;;;;;;;;16.93;40.15;100139.16;1615301;86;20168;-80
2022/04/28 08:12:33;;;;;;;;;;;;;;;17.07;38.57;100136.87;1663317;84;20149;-74
2022/04/28 08:15:01;;;;;;;;;;;;;;;17.32;39.65;100140.48;1664476;86;22066;-73
2022/04/28 08:17:29;;;;;;;;;;;;;;;17.47;35.50;100132.23;1665901;86;20126;-71
2022/04/28 08:19:57;;;;;;;;;;;;;;;17.51;35.64;100139.30;1663931;86;20432;-71
2022/04/28 08:22:24;;;;;;;;;;;;;;;17.54;35.92;100130.27;1665793;86;20125;-74
2022/04/28 08:24:50;;;;;;;;;;;;;;;17.44;36.13;100137.09;1661980;86;20101;-67
2022/04/28 08:27:24;;;;;;;;;;;;;;;17.45;36.46;100133.16;1662083;86;21285;-67
2022/04/28 08:29:48;;;;;;;;;;;;;;;17.63;34.99;100132.92;1653218;86;20097;-75
2022/04/28 08:32:19;;;;;;;;;;;;;;;17.84;35.41;100133.62;1662274;85;20413;-69
2022/04/28 08:34:45;;;;;;;;;;;;;;;18.17;35.99;100126.45;1665488;86;20148;-67
2022/04/28 08:37:13;;;;;;;;;;;;;;;18.41;33.82;100124.98;1664886;86;20157;-78
2022/04/28 08:39:40;;;;;;;;;;;;;;;18.49;34.95;100125.37;1662308;86;21045;-70
2022/04/28 08:42:11;;;;;;;;;;;;;;;18.71;33.85;100117.66;1662381;86;20082;-69
2022/04/28 08:44:59;;;;;;;;;;;;;;;18.85;33.46;100115.25;1660948;86;20101;-68
2022/04/28 08:47:27;;;;;;;;;;;;;;;18.84;34.42;100116.42;1620958;86;20208;-68
2022/04/28 08:49:56;;;;;;;;;;;;;;;18.85;33.25;100116.64;1658722;86;20114;-69
2022/04/28 08:52:25;;;;;;;;;;;;;;;18.87;34.69;100109.33;1662378;86;21382;-68
2022/04/28 08:54:55;;;;;;;;;;;;;;;19.03;33.36;100110.16;1661029;86;20439;-68
2022/04/28 08:57:23;;;;;;;;;;;;;;;19.43;35.67;100105.75;1662317;86;20129;-68
2022/04/28 08:59:51;;;;;;;;;;;;;;;19.96;34.43;100108.95;1657479;85;20473;-69
2022/04/28 09:02:24;;;;;;;;;;;;;;;20.16;32.21;100102.81;1631069;87;20108;-70
2022/04/28 09:05:04;;;;;;;;;;;;;;;20.16;30.25;100104.20;1599941;88;20124;-68
2022/04/28 09:07:49;;;;;;;;;;;;;;;20.06;31.92;100111.97;1618366;87;20108;-70
2022/04/28 09:10:28;;;;;;;;;;;;;;;19.81;33.33;100105.05;1607782;87;20176;-69
2022/04/28 09:15:52;;;;;;;;;;;;;;;19.19;35.12;100106.75;1583905;89;20095;-69
2022/04/28 09:18:21;;;;;;;;;;;;;;;18.78;34.17;100099.19;1626823;87;20647;-69
2022/04/28 09:20:50;;;;;;;;;;;;;;;18.44;35.70;100108.98;1611670;88;20260;-70
2022/04/28 09:23:20;;;;;;;;;;;;;;;18.28;36.40;100111.48;1622548;86;20148;-72
2022/04/28 09:25:51;;;;;;;;;;;;;;;18.09;36.24;100110.16;1627393;85;20133;-73
2022/04/28 09:28:19;;;;;;;;;;;;;;;17.87;36.86;100112.67;1595178;88;20447;-72
2022/04/28 09:30:51;;;;;;;;;;;;;;;17.63;37.58;100111.52;1627492;86;21797;-72
2022/04/28 09:33:27;;;;;;;;;;;;;;;17.39;37.61;100108.19;1589667;88;20454;-71
2022/04/28 09:35:57;;;;;;;;;;;;;;;17.16;38.75;100116.19;1596122;88;20472;-71
2022/04/28 09:38:27;;;;;;;;;;;;;;;16.98;38.63;100117.55;1588339;88;20083;-71
2022/04/28 09:43:41;;;;;;;;;;;;;;;16.64;38.69;100120.16;1599573;87;21304;-70
2022/04/28 09:46:08;;;;;;;;;;;;;;;16.53;38.86;100118.13;1622744;87;20084;-70
2022/04/28 09:48:37;;;;;;;;;;;;;;;16.40;39.06;100125.02;1645581;85;20078;-70
2022/04/28 09:51:07;;;;;;;;;;;;;;;16.28;39.88;100125.54;1604139;87;20173;-70
2022/04/28 09:53:54;;;;;;;;;;;;;;;16.17;40.30;100123.78;1626072;87;20121;-70
2022/04/28 09:56:28;;;;;;;;;;;;;;;16.04;40.36;100124.30;1622742;87;21665;-70
2022/04/28 09:58:57;;;;;;;;;;;;;;;15.95;40.89;100125.51;1611611;87;20147;-70
2022/04/28 10:01:25;;;;;;;;;;;;;;;15.90;40.89;100125.71;1633121;87;20082;-70
2022/04/28 10:03:52;;;;;;;;;;;;;;;15.86;40.66;100131.11;1626644;87;20171;-70
2022/04/28 10:06:20;;;;;;;;;;;;;;;15.80;41.43;100131.87;1619547;86;20177;-71
2022/04/28 10:08:56;;;;;;;;;;;;;;;15.66;41.62;100139.63;1623733;87;20615;-71
2022/04/28 10:11:23;;;;;;;;;;;;;;;15.50;41.19;100132.47;1623982;87;20120;-71
2022/04/28 10:13:51;;;;;;;;;;;;;;;15.39;41.86;100134.56;1622834;86;20108;-70
2022/04/28 10:16:21;;;;;;;;;;;;;;;15.30;41.44;100136.56;1616742;87;20105;-70
2022/04/28 10:19:07;;;;;;;;;;;;;;;15.18;42.77;100142.22;1608974;87;20479;-71
2022/04/28 10:21:42;;;;;;;;;;;;;;;15.06;42.79;100142.68;1628422;87;21601;-70
2022/04/28 10:32:56;;;;;;;;;;;;;;;14.79;43.38;100139.21;1638674;86;20102;-70
2022/04/28 10:35:44;;;;;;;;;;;;;;;14.76;43.65;100143.20;1642688;84;21151;-70
2022/04/28 10:38:24;;;;;;;;;;;;;;;14.73;43.84;100141.09;1639129;85;20153;-69
2022/04/28 10:41:08;;;;;;;;;;;;;;;14.74;44.25;100142.72;1648621;84;20489;-72
2022/04/28 10:43:43;;;;;;;;;;;;;;;14.81;43.96;100138.89;1645327;84;20123;-73
2022/04/28 10:46:19;;;;;;;;;;;;;;;14.83;43.79;100136.61;1637199;86;20126;-68
2022/04/28 10:48:45;;;;;;;;;;;;;;;14.84;43.57;100135.47;1646556;86;21268;-65
2022/04/28 10:51:18;;;;;;;;;;;;;;;14.82;43.63;100142.70;1644078;84;20110;-69
2022/04/28 10:54:09;;;;;;;;;;;;;;;14.80;42.40;100133.92;1650205;85;20118;-69
2022/04/28 10:56:50;;;;;;;;;;;;;;;14.82;42.88;100136.36;1656448;85;20149;-75
2022/04/28 10:59:32;;;;;;;;;;;;;;;14.89;43.07;100137.23;1647275;86;20196;-68
2022/04/28 11:02:16;;;;;;;;;;;;;;;14.93;42.92;100138.20;1659682;85;21109;-68
2022/04/28 11:04:54;;;;;;;;;;;;;;;14.98;42.91;100130.54;1646250;85;20122;-69
2022/04/28 11:07:17;;;;;;;;;;;;;;;15.08;42.52;100130.72;1642432;86;20121;-69
2022/04/28 11:09:45;;;;;;;;;;;;;;;15.14;41.71;100130.20;1613066;87;20211;-68
2022/04/28 11:12:16;;;;;;;;;;;;;;;15.18;43.26;100125.63;1617273;85;20148;-68
2022/04/28 11:14:49;;;;;;;;;;;;;;;15.29;43.61;100126.07;1623316;86;21820;-68
2022/04/28 11:17:17;;;;;;;;;;;;;;;15.40;42.98;100128.70;1636236;86;20140;-69
2022/04/28 11:19:45;;;;;;;;;;;;;;;15.49;42.81;100128.08;1659033;85;20141;-68
2022/04/28 11:22:13;;;;;;;;;;;;;;;15.61;43.13;100125.17;1636631;86;20230;-68
2022/04/28 11:24:46;;;;;;;;;;;;;;;15.68;41.89;100119.34;1631777;86;20477;-68
2022/04/28 11:27:18;;;;;;;;;;;;;;;15.75;41.24;100111.89;1623522;86;21191;-69
2022/04/28 11:29:46;;;;;;;;;;;;;;;15.85;41.74;100115.64;1616719;86;20454;-68
2022/04/28 11:32:18;;;;;;;;;;;;;;;15.91;41.92;100119.84;1620677;87;20092;-69
2022/04/28 11:34:54;;;;;;;;;;;;;;;15.95;41.03;100119.97;1632717;87;20192;-69
2022/04/28 11:37:24;;;;;;;;;;;;;;;16.03;40.69;100110.78;1629021;86;20148;-68
2022/04/28 11:39:56;;;;;;;;;;;;;;;16.18;40.58;100116.49;1616063;87;20768;-69
2022/04/28 11:42:27;;;;;;;;;;;;;;;16.31;41.08;100111.81;1610509;87;20908;-69
2022/04/28 11:45:00;;;;;;;;;;;;;;;16.39;39.72;100112.31;1623753;86;20525;-69
2022/04/28 11:47:27;;;;;;;;;;;;;;;16.53;40.10;100105.09;1622794;87;20443;-68
2022/04/28 11:50:03;;;;;;;;;;;;;;;16.63;39.42;100098.30;1612735;87;20157;-69
2022/04/28 11:52:35;;;;;;;;;;;;;;;16.69;37.28;100096.39;1622568;86;21176;-69
2022/04/28 11:55:10;;;;;;;;;;;;;;;16.80;38.21;100097.53;1615499;87;20181;-68
2022/04/28 11:57:42;;;;;;;;;;;;;;;17.14;39.47;100090.76;1626377;85;20474;-69
2022/04/28 12:00:17;;;;;;;;;;;;;;;17.56;37.33;100089.09;1643053;86;20116;-68
2022/04/28 12:02:44;;;;;;;;;;;;;;;17.83;35.76;100091.73;1656835;85;20128;-68
2022/04/28 12:05:18;;;;;;;;;;;;;;;17.97;35.56;100087.97;1652729;85;21184;-68
2022/04/28 12:07:51;;;;;;;;;;;;;;;18.14;36.87;100088.26;1649954;86;20094;-68
2022/04/28 12:16:15;;;;;;;;;;;;;;;19.42;33.70;100081.28;1648952;86;20190;-70
2022/04/28 12:21:35;;;;;;;;;;;;;;;20.02;34.80;100085.20;1655285;85;20477;-68
2022/04/28 12:24:19;;;;;;;;;;;;;;;20.25;32.17;100075.48;1654458;86;20172;-68
2022/04/28 12:26:49;;;;;;;;;;;;;;;20.61;32.66;100081.20;1649503;85;20098;-68
2022/04/28 12:29:24;;;;;;;;;;;;;;;21.09;29.86;100066.48;1651649;85;20134;-68
2022/04/28 12:31:54;;;;;;;;;;;;;;;21.40;30.72;100068.77;1654575;85;21159;-68
2022/04/28 12:34:30;;;;;;;;;;;;;;;21.50;29.60;100069.53;1650062;85;20133;-68
2022/04/28 12:37:00;;;;;;;;;;;;;;;21.24;27.61;100061.17;1640528;86;20169;-67
2022/04/28 12:39:31;;;;;;;;;;;;;;;20.96;30.94;100058.69;1648546;86;20166;-71
2022/04/28 12:42:00;;;;;;;;;;;;;;;21.11;31.23;100061.93;1650290;86;20210;-66
2022/04/28 12:44:32;;;;;;;;;;;;;;;21.27;31.63;100053.44;1642544;85;20129;-66
2022/04/28 12:47:04;;;;;;;;;;;;;;;21.52;32.28;100055.19;1644395;85;20504;-66
2022/04/28 12:49:44;;;;;;;;;;;;;;;21.77;29.06;100048.55;1650942;84;20132;-66
2022/04/28 12:52:28;;;;;;;;;;;;;;;21.95;29.31;100049.59;1637405;86;20101;-67
2022/04/28 12:55:05;;;;;;;;;;;;;;;21.80;27.67;100045.80;1650640;85;20077;-68
2022/04/28 12:57:36;;;;;;;;;;;;;;;21.43;28.19;100045.67;1651210;85;21117;-72
2022/04/28 13:00:09;;;;;;;;;;;;;;;21.31;29.65;100043.94;1636341;85;20133;-76
2022/04/28 13:02:36;;;;;;;;;;;;;;;21.21;30.34;100052.11;1650275;84;20114;-65
2022/04/28 13:05:12;;;;;;;;;;;;;;;21.29;29.25;100037.92;1653204;85;20483;-69
2022/04/28 13:07:43;;;;;;;;;;;;;;;21.32;28.35;100035.77;1630853;85;20153;-70
2022/04/28 13:10:12;;;;;;;;;;;;;;;21.18;30.41;100050.87;1644391;86;21254;-71
2022/04/28 13:12:41;;;;;;;;;;;;;;;21.02;28.98;100049.63;1654283;84;20481;-70
2022/04/28 13:15:13;;;;;;;;;;;;;;;20.69;28.83;100046.69;1653192;84;20125;-70
2022/04/28 13:17:40;;;;;;;;;;;;;;;20.51;28.58;100043.56;1652143;85;20140;-70
2022/04/28 13:20:07;;;;;;;;;;;;;;;20.20;28.85;100043.17;1637505;85;20134;-71
2022/04/28 13:22:35;;;;;;;;;;;;;;;19.86;28.76;100042.66;1654719;85;20819;-68
2022/04/28 13:25:05;;;;;;;;;;;;;;;19.44;29.71;100049.70;1648886;85;20490;-73
2022/04/28 13:27:33;;;;;;;;;;;;;;;19.20;30.53;100049.92;1654609;85;20130;-73
2022/04/28 13:29:59;;;;;;;;;;;;;;;18.92;30.10;100050.06;1648214;84;20181;-73
2022/04/28 13:32:26;;;;;;;;;;;;;;;18.58;30.58;100045.98;1650116;85;20246;-73
2022/04/28 13:34:52;;;;;;;;;;;;;;;18.33;31.33;100057.03;1649666;85;21555;-69
2022/04/28 13:37:19;;;;;;;;;;;;;;;18.09;31.91;100052.39;1642518;85;20436;-66
2022/04/28 13:39:47;;;;;;;;;;;;;;;17.95;31.92;100056.15;1658162;85;20089;-67
2022/04/28 13:42:17;;;;;;;;;;;;;;;17.79;33.90;100054.14;1656132;85;20118;-67